createdAt,value
2024-04-10T00:01:39.429Z,2.19
2024-04-10T00:04:06.139Z,2.27
2024-04-10T00:06:32.987Z,2.21
2024-04-10T00:08:59.842Z,2.09
2024-04-10T00:11:26.948Z,2.09
2024-04-10T00:13:53.849Z,2.21
2024-04-10T00:16:20.655Z,1.94
2024-04-10T00:18:47.429Z,2.23
2024-04-10T00:21:14.289Z,2.31
2024-04-10T00:23:41.023Z,2.07
2024-04-10T00:26:07.860Z,2.22
2024-04-10T00:28:34.678Z,2.07
2024-04-10T00:31:01.377Z,2.30
2024-04-10T00:33:28.113Z,2.13
2024-04-10T00:35:54.979Z,2.20
2024-04-10T00:38:21.673Z,2.54
2024-04-10T00:40:48.410Z,2.15
2024-04-10T00:43:15.172Z,1.84
2024-04-10T00:45:41.835Z,2.16
2024-04-10T00:48:08.747Z,2.02
2024-04-10T00:50:35.576Z,2.16
2024-04-10T00:53:02.417Z,1.95
2024-04-10T00:55:29.114Z,1.92
2024-04-10T00:57:55.856Z,2.08
2024-04-10T01:00:22.544Z,2.21
2024-04-10T01:02:49.354Z,2.00
2024-04-10T01:05:16.162Z,2.16
2024-04-10T01:07:42.843Z,2.12
2024-04-10T01:10:09.520Z,1.95
2024-04-10T01:12:36.235Z,2.29
2024-04-10T01:15:02.967Z,2.21
2024-04-10T01:17:29.792Z,1.93
2024-04-10T01:19:56.693Z,2.05
2024-04-10T01:22:23.410Z,2.12
2024-04-10T01:24:50.079Z,2.18
2024-04-10T01:27:16.847Z,2.15
2024-04-10T01:29:43.518Z,1.99
2024-04-10T01:32:10.353Z,2.17
2024-04-10T01:34:37.136Z,2.07
2024-04-10T01:37:03.855Z,2.14
2024-04-10T01:39:30.554Z,2.13
2024-04-10T01:41:57.391Z,2.00
2024-04-10T01:44:24.197Z,2.36
2024-04-10T01:46:50.989Z,2.24
2024-04-10T01:49:17.982Z,2.11
2024-04-10T01:51:44.749Z,2.24
2024-04-10T01:54:11.597Z,2.52
2024-04-10T01:56:38.485Z,2.51
2024-04-10T01:59:05.312Z,2.22
2024-04-10T02:01:32.085Z,2.05
2024-04-10T02:03:58.960Z,2.24
2024-04-10T02:06:25.748Z,2.11
2024-04-10T02:08:52.545Z,1.88
2024-04-10T02:11:19.405Z,2.00
2024-04-10T02:13:46.163Z,2.08
2024-04-10T02:16:12.890Z,2.25
2024-04-10T02:18:39.701Z,2.13
2024-04-10T02:21:06.436Z,2.19
2024-04-10T02:23:33.247Z,2.08
2024-04-10T02:26:00.191Z,2.00
2024-04-10T02:28:26.958Z,1.93
2024-04-10T02:30:53.650Z,2.18
2024-04-10T02:33:20.530Z,2.28
2024-04-10T02:35:47.430Z,1.97
2024-04-10T02:38:14.165Z,2.17
2024-04-10T02:40:40.918Z,2.26
2024-04-10T02:43:07.590Z,2.01
2024-04-10T02:45:34.283Z,2.27
2024-04-10T02:48:01.138Z,2.11
2024-04-10T02:50:27.867Z,1.99
2024-04-10T02:52:54.621Z,2.21
2024-04-10T02:55:21.412Z,2.22
2024-04-10T02:57:48.096Z,2.19
2024-04-10T03:00:14.791Z,1.98
2024-04-10T03:02:41.553Z,1.92
2024-04-10T03:05:08.466Z,2.11
2024-04-10T03:07:35.254Z,1.88
2024-04-10T03:10:01.999Z,2.04
2024-04-10T03:12:28.824Z,2.18
2024-04-10T03:14:55.580Z,2.11
2024-04-10T03:17:22.489Z,2.05
2024-04-10T03:19:49.274Z,2.29
2024-04-10T03:22:16.011Z,1.90
2024-04-10T03:24:42.897Z,1.87
2024-04-10T03:27:09.575Z,2.07
2024-04-10T03:29:36.316Z,2.12
2024-04-10T03:32:03.240Z,2.11
2024-04-10T03:34:30.007Z,2.05
2024-04-10T03:36:56.685Z,2.16
2024-04-10T03:39:23.505Z,2.19
2024-04-10T03:41:50.171Z,1.98
2024-04-10T03:44:16.969Z,2.14
2024-04-10T03:46:43.785Z,2.13
2024-04-10T03:49:10.567Z,2.13
2024-04-10T03:51:37.311Z,1.88
2024-04-10T03:54:04.067Z,2.05
2024-04-10T03:56:30.876Z,2.03
2024-04-10T03:58:57.738Z,2.20
2024-04-10T04:01:24.579Z,2.10
2024-04-10T04:03:51.478Z,1.96
2024-04-10T04:06:18.246Z,2.14
2024-04-10T04:08:45.178Z,2.19
2024-04-10T04:11:11.976Z,2.08
2024-04-10T04:13:38.827Z,1.96
2024-04-10T04:16:05.700Z,2.04
2024-04-10T04:18:32.454Z,2.02
2024-04-10T04:20:59.180Z,1.92
2024-04-10T04:23:26.198Z,2.13
2024-04-10T04:25:52.993Z,2.03
2024-04-10T04:28:19.666Z,2.04
2024-04-10T04:30:46.473Z,1.93
2024-04-10T04:33:13.374Z,1.93
2024-04-10T04:35:40.249Z,2.05
2024-04-10T04:38:06.993Z,2.32
2024-04-10T04:40:33.760Z,1.94
2024-04-10T04:43:00.449Z,2.06
2024-04-10T04:45:27.194Z,2.07
2024-04-10T04:47:54.076Z,1.99
2024-04-10T04:50:20.824Z,2.06
2024-04-10T04:52:47.567Z,2.19
2024-04-10T04:55:14.273Z,2.15
2024-04-10T04:57:41.017Z,1.98
2024-04-10T05:00:07.853Z,1.99
2024-04-10T05:02:34.690Z,2.10
2024-04-10T05:05:01.492Z,1.97
2024-04-10T05:07:28.209Z,1.88
2024-04-10T05:09:54.906Z,2.14
2024-04-10T05:12:21.741Z,2.07
2024-04-10T05:14:48.768Z,2.15
2024-04-10T05:17:15.659Z,2.16
2024-04-10T05:19:42.688Z,1.87
2024-04-10T05:22:09.437Z,2.04
2024-04-10T05:24:36.199Z,2.22
2024-04-10T05:27:02.940Z,2.04
2024-04-10T05:29:29.862Z,2.11
2024-04-10T05:31:56.621Z,2.01
2024-04-10T05:34:23.365Z,1.81
2024-04-10T05:36:50.246Z,2.12
2024-04-10T05:39:17.040Z,1.97
2024-04-10T05:41:43.863Z,2.27
2024-04-10T05:44:10.710Z,2.05
2024-04-10T05:46:37.398Z,2.04
2024-04-10T05:49:04.244Z,2.20
2024-04-10T05:51:31.159Z,2.11
2024-04-10T05:53:57.869Z,1.86
2024-04-10T05:56:24.585Z,1.84
2024-04-10T05:58:51.341Z,2.26
2024-04-10T06:01:18.158Z,2.26
2024-04-10T06:03:44.918Z,1.94
2024-04-10T06:06:11.695Z,2.13
2024-04-10T06:08:38.513Z,2.07
2024-04-10T06:11:05.466Z,2.05
2024-04-10T06:13:32.285Z,2.23
2024-04-10T06:15:59.011Z,2.21
2024-04-10T06:18:25.759Z,2.09
2024-04-10T06:20:52.480Z,1.88
2024-04-10T06:23:19.210Z,2.16
2024-04-10T06:25:46.033Z,2.32
2024-04-10T06:28:12.783Z,2.24
2024-04-10T06:30:39.516Z,2.25
2024-04-10T06:33:06.493Z,2.36
2024-04-10T06:35:33.443Z,2.26
2024-04-10T06:38:00.276Z,2.25
2024-04-10T06:40:28.028Z,2.24
2024-04-10T06:42:56.492Z,2.47
2024-04-10T06:45:23.204Z,2.26
2024-04-10T06:47:49.987Z,2.27
2024-04-10T06:50:16.923Z,2.15
2024-04-10T06:52:43.675Z,2.34
2024-04-10T06:55:10.321Z,2.36
2024-04-10T06:57:37.092Z,2.19
2024-04-10T07:00:03.779Z,2.14
2024-04-10T07:02:30.567Z,2.02
2024-04-10T07:04:57.709Z,2.19
2024-04-10T07:07:24.556Z,2.35
2024-04-10T07:09:51.240Z,2.22
2024-04-10T07:12:18.081Z,2.18
2024-04-10T07:14:44.904Z,2.33
2024-04-10T07:17:11.702Z,2.08
2024-04-10T07:19:38.564Z,2.30
2024-04-10T07:22:05.743Z,2.50
2024-04-10T07:24:32.574Z,2.40
2024-04-10T07:26:59.406Z,2.42
2024-04-10T07:29:26.196Z,2.14
2024-04-10T07:31:53.034Z,2.54
2024-04-10T07:34:20.123Z,2.52
2024-04-10T07:36:49.428Z,2.39
2024-04-10T07:39:16.578Z,2.36
2024-04-10T07:41:43.502Z,2.47
2024-04-10T07:44:10.639Z,2.36
2024-04-10T07:46:37.450Z,2.46
2024-04-10T07:49:04.579Z,2.42
2024-04-10T07:51:31.451Z,2.31
2024-04-10T07:53:58.119Z,2.63
2024-04-10T07:56:24.983Z,2.71
2024-04-10T07:58:51.908Z,2.71
2024-04-10T08:01:18.933Z,2.41
2024-04-10T08:03:45.898Z,2.66
2024-04-10T08:06:12.654Z,2.49
2024-04-10T08:08:39.530Z,2.49
2024-04-10T08:11:06.448Z,2.63
2024-04-10T08:13:33.170Z,2.54
2024-04-10T08:15:59.899Z,2.41
2024-04-10T08:18:26.775Z,2.65
2024-04-10T08:20:53.566Z,2.68
2024-04-10T08:23:20.266Z,2.44
2024-04-10T08:25:47.067Z,2.46
2024-04-10T08:28:13.743Z,2.91
2024-04-10T08:30:40.432Z,2.80
2024-04-10T08:33:07.289Z,2.56
2024-04-10T08:35:34.009Z,2.75
2024-04-10T08:38:00.765Z,2.52
2024-04-10T08:40:27.577Z,2.69
2024-04-10T08:42:54.294Z,2.63
2024-04-10T08:45:21.052Z,2.71
2024-04-10T08:47:47.988Z,2.55
2024-04-10T08:50:14.720Z,2.82
2024-04-10T08:52:41.445Z,2.52
2024-04-10T08:55:10.120Z,2.85
2024-04-10T08:57:36.887Z,3.03
2024-04-10T09:00:03.664Z,2.53
2024-04-10T09:02:30.553Z,2.68
2024-04-10T09:04:57.598Z,2.67
2024-04-10T09:07:24.375Z,2.76
2024-04-10T09:09:51.139Z,2.80
2024-04-10T09:12:17.841Z,2.76
2024-04-10T09:14:44.494Z,2.75
2024-04-10T09:17:11.277Z,2.52
2024-04-10T09:19:38.213Z,2.43
2024-04-10T09:22:04.956Z,2.63
2024-04-10T09:24:31.848Z,2.65
2024-04-10T09:26:58.781Z,2.38
2024-04-10T09:29:25.600Z,2.39
2024-04-10T09:31:52.398Z,2.47
2024-04-10T09:34:19.254Z,2.35
2024-04-10T09:36:46.117Z,2.58
2024-04-10T09:39:12.917Z,2.36
2024-04-10T09:41:39.800Z,2.73
2024-04-10T09:44:06.688Z,2.39
2024-04-10T09:46:33.525Z,2.44
2024-04-10T09:49:00.417Z,2.08
2024-04-10T09:51:27.184Z,2.45
2024-04-10T09:53:54.026Z,2.26
2024-04-10T09:56:20.925Z,2.24
2024-04-10T09:58:47.688Z,2.28
2024-04-10T10:01:14.645Z,2.38
2024-04-10T10:03:41.708Z,2.32
2024-04-10T10:06:08.851Z,2.14
2024-04-10T10:08:35.730Z,2.25
2024-04-10T10:11:02.564Z,2.27
2024-04-10T10:13:29.264Z,2.09
2024-04-10T10:15:56.057Z,2.29
2024-04-10T10:18:24.341Z,2.29
2024-04-10T10:20:58.204Z,2.04
2024-04-10T10:23:25.009Z,2.25
2024-04-10T10:25:51.786Z,1.69
2024-04-10T10:28:19.919Z,2.32
2024-04-10T10:30:46.799Z,2.00
2024-04-10T10:33:13.885Z,2.02
2024-04-10T10:35:40.937Z,2.16
2024-04-10T10:38:08.334Z,2.14
2024-04-10T10:40:35.536Z,1.85
2024-04-10T10:43:02.433Z,1.71
2024-04-10T10:45:29.122Z,2.04
2024-04-10T10:47:56.106Z,2.10
2024-04-10T10:50:22.971Z,1.77
2024-04-10T10:52:49.680Z,2.02
2024-04-10T10:55:16.385Z,1.81
2024-04-10T10:57:43.274Z,1.87
2024-04-10T11:00:09.978Z,1.94
2024-04-10T11:02:36.732Z,1.91
2024-04-10T11:05:03.678Z,1.99
2024-04-10T11:07:30.417Z,1.96
2024-04-10T11:09:57.087Z,2.18
2024-04-10T11:12:23.954Z,1.92
2024-04-10T11:16:22.565Z,2.38
2024-04-10T11:18:49.316Z,2.08
2024-04-10T11:21:16.007Z,2.05
2024-04-10T11:23:42.792Z,1.98
2024-04-10T11:26:09.559Z,1.93
2024-04-10T11:28:36.339Z,1.83
2024-04-10T11:31:03.100Z,1.84
2024-04-10T11:33:29.893Z,1.94
2024-04-10T11:35:56.676Z,1.99
2024-04-10T11:38:23.514Z,1.99
2024-04-10T11:40:50.230Z,1.82
2024-04-10T11:43:16.932Z,1.94
2024-04-10T11:45:43.641Z,1.74
2024-04-10T11:48:11.915Z,1.86
2024-04-10T11:50:39.095Z,1.73
2024-04-10T11:53:05.921Z,1.86
2024-04-10T11:55:32.612Z,1.67
2024-04-10T11:57:59.296Z,1.89
2024-04-10T12:00:26.103Z,1.85
2024-04-10T12:02:52.931Z,1.76
2024-04-10T12:05:19.970Z,1.66
2024-04-10T12:07:46.841Z,1.97
2024-04-10T12:10:13.530Z,1.85
2024-04-10T12:12:40.530Z,1.96
2024-04-10T12:15:07.652Z,1.88
2024-04-10T12:17:34.564Z,1.83
2024-04-10T12:20:01.318Z,2.03
2024-04-10T12:22:28.094Z,1.87
2024-04-10T12:24:54.797Z,1.97
2024-04-10T12:27:21.510Z,1.97
2024-04-10T12:29:48.324Z,2.38
2024-04-10T12:32:15.152Z,2.01
2024-04-10T12:34:42.101Z,2.22
2024-04-10T12:37:08.928Z,2.65
2024-04-10T12:39:35.753Z,2.69
2024-04-10T12:42:02.492Z,2.67
2024-04-10T12:44:29.359Z,2.82
2024-04-10T12:46:56.231Z,3.09
2024-04-10T12:49:22.952Z,2.93
2024-04-10T12:51:49.751Z,3.44
2024-04-10T12:54:16.444Z,3.34
2024-04-10T12:56:43.199Z,3.26
2024-04-10T12:59:09.975Z,3.65
2024-04-10T13:01:36.630Z,3.14
2024-04-10T13:04:03.791Z,3.34
2024-04-10T13:06:30.855Z,3.41
2024-04-10T13:08:57.596Z,3.27
2024-04-10T13:11:24.471Z,3.55
2024-04-10T13:13:51.413Z,3.47
2024-04-10T13:16:18.196Z,3.48
2024-04-10T13:18:45.240Z,3.31
2024-04-10T13:21:12.176Z,3.49
2024-04-10T13:23:38.965Z,3.40
2024-04-10T13:26:07.483Z,3.57
2024-04-10T13:28:36.604Z,3.56
2024-04-10T13:31:03.322Z,3.71
2024-04-10T13:33:30.134Z,3.70
2024-04-10T13:35:57.256Z,3.64
2024-04-10T13:38:24.483Z,3.50
2024-04-10T13:40:51.946Z,3.57
2024-04-10T13:43:18.722Z,3.50
2024-04-10T13:45:45.424Z,3.56
2024-04-10T13:48:12.293Z,3.93
2024-04-10T13:50:39.155Z,3.74
2024-04-10T13:53:05.859Z,3.49
2024-04-10T13:55:32.553Z,3.56
2024-04-10T13:57:59.244Z,3.52
2024-04-10T14:00:25.973Z,3.43
2024-04-10T14:02:52.783Z,3.69
2024-04-10T14:05:19.677Z,3.32
2024-04-10T14:07:46.399Z,3.45
2024-04-10T14:10:13.075Z,3.40
2024-04-10T14:12:39.775Z,3.58
2024-04-10T14:15:06.542Z,3.40
2024-04-10T14:17:33.612Z,3.24
2024-04-10T14:20:00.357Z,3.53
2024-04-10T14:22:27.025Z,3.31
2024-04-10T14:24:53.681Z,3.30
2024-04-10T14:27:20.436Z,3.37
2024-04-10T14:29:47.252Z,3.15
2024-04-10T14:32:14.156Z,3.08
2024-04-10T14:34:41.158Z,3.08
2024-04-10T14:37:07.974Z,3.06
2024-04-10T14:39:34.671Z,3.16
2024-04-10T14:42:01.614Z,3.01
2024-04-10T14:44:28.454Z,3.16
2024-04-10T14:46:55.187Z,2.78
2024-04-10T14:49:22.012Z,3.20
2024-04-10T14:51:48.713Z,3.05
2024-04-10T14:54:15.484Z,2.84
2024-04-10T14:56:42.476Z,2.92
2024-04-10T14:59:09.150Z,2.86
2024-04-10T15:01:35.816Z,3.12
2024-04-10T15:04:02.758Z,2.70
2024-04-10T15:06:29.676Z,2.93
2024-04-10T15:08:56.526Z,2.61
2024-04-10T15:11:23.484Z,2.87
2024-04-10T15:13:50.306Z,2.84
2024-04-10T15:16:17.059Z,2.67
2024-04-10T15:18:43.842Z,2.78
2024-04-10T15:21:10.600Z,2.79
2024-04-10T15:23:37.582Z,2.78
2024-04-10T15:26:04.335Z,2.71
2024-04-10T15:28:31.048Z,2.75
2024-04-10T15:30:58.679Z,2.75
2024-04-10T15:33:26.413Z,2.54
2024-04-10T15:35:53.365Z,2.83
2024-04-10T15:38:20.104Z,2.77
2024-04-10T15:40:46.920Z,2.61
2024-04-10T15:43:13.602Z,2.65
2024-04-10T15:45:40.266Z,2.46
2024-04-10T15:48:07.152Z,2.65
2024-04-10T15:50:34.011Z,2.63
2024-04-10T15:53:00.692Z,2.47
2024-04-10T15:55:27.802Z,2.64
2024-04-10T15:57:54.494Z,2.45
2024-04-10T16:00:21.254Z,2.56
2024-04-10T16:02:48.124Z,2.47
2024-04-10T16:05:15.015Z,2.33
2024-04-10T16:07:41.753Z,2.41
2024-04-10T16:10:08.566Z,2.35
2024-04-10T16:12:35.394Z,2.22
2024-04-10T16:15:02.566Z,2.41
2024-04-10T16:17:29.474Z,2.40
2024-04-10T16:19:56.169Z,2.17
2024-04-10T16:22:22.868Z,2.45
2024-04-10T16:24:49.561Z,2.57
2024-04-10T16:27:16.366Z,2.44
2024-04-10T16:29:43.256Z,2.10
2024-04-10T16:32:10.083Z,2.47
2024-04-10T16:34:36.852Z,2.31
2024-04-10T16:37:03.675Z,2.26
2024-04-10T16:39:30.446Z,2.20
2024-04-10T16:41:57.198Z,2.26
2024-04-10T16:44:24.007Z,2.38
2024-04-10T16:46:50.821Z,2.37
2024-04-10T16:49:17.603Z,2.24
2024-04-10T16:51:44.266Z,2.21
2024-04-10T16:54:11.028Z,2.10
2024-04-10T16:56:37.854Z,1.88
2024-04-10T16:59:04.626Z,2.31
2024-04-10T17:01:31.500Z,2.22
2024-04-10T17:03:58.383Z,2.17
2024-04-10T17:06:25.159Z,2.04
2024-04-10T17:08:52.040Z,2.01
2024-04-10T17:11:19.008Z,2.05
2024-04-10T17:13:45.800Z,2.07
2024-04-10T17:16:12.700Z,2.07
2024-04-10T17:18:39.553Z,2.22
2024-04-10T17:21:06.340Z,2.02
2024-04-10T17:23:33.203Z,1.95
2024-04-10T17:25:59.972Z,2.01
2024-04-10T17:28:26.654Z,2.23
2024-04-10T17:30:53.390Z,2.06
2024-04-10T17:33:20.301Z,1.88
2024-04-10T17:35:47.159Z,2.15
2024-04-10T17:38:14.057Z,1.96
2024-04-10T17:40:40.843Z,2.05
2024-04-10T17:43:07.589Z,2.08
2024-04-10T17:45:34.355Z,1.77
2024-04-10T17:48:01.320Z,1.92
2024-04-10T17:50:28.081Z,1.73
2024-04-10T17:52:54.937Z,1.84
2024-04-10T17:55:21.631Z,1.92
2024-04-10T17:57:48.416Z,1.93
2024-04-10T18:00:15.278Z,1.79
2024-04-10T18:02:42.215Z,1.95
2024-04-10T18:05:09.041Z,1.82
2024-04-10T18:07:35.816Z,1.89
2024-04-10T18:10:02.517Z,1.93
2024-04-10T18:12:29.369Z,2.03
2024-04-10T18:14:56.277Z,1.83
2024-04-10T18:17:23.260Z,1.86
2024-04-10T18:19:50.232Z,1.74
2024-04-10T18:22:17.088Z,1.79
2024-04-10T18:24:43.787Z,1.80
2024-04-10T18:27:10.491Z,1.92
2024-04-10T18:29:37.432Z,1.61
2024-04-10T18:32:04.244Z,1.88
2024-04-10T18:34:31.046Z,1.68
2024-04-10T18:36:57.870Z,1.58
2024-04-10T18:39:24.527Z,1.74
2024-04-10T18:41:51.245Z,1.80
2024-04-10T18:44:18.070Z,1.89
2024-04-10T18:46:44.743Z,1.81
2024-04-10T18:49:11.695Z,1.65
2024-04-10T18:51:38.591Z,1.68
2024-04-10T18:54:05.402Z,1.90
2024-04-10T18:56:32.185Z,1.80
2024-04-10T18:58:58.978Z,1.73
2024-04-10T19:01:26.127Z,1.82
2024-04-10T19:03:53.136Z,1.90
2024-04-10T19:06:20.056Z,1.83
2024-04-10T19:08:46.837Z,1.68
2024-04-10T19:11:14.029Z,1.75
2024-04-10T19:13:41.071Z,1.74
2024-04-10T19:16:07.842Z,1.70
2024-04-10T19:18:35.019Z,1.80
2024-04-10T19:21:02.327Z,1.87
2024-04-10T19:23:29.176Z,1.92
2024-04-10T19:25:55.881Z,1.69
2024-04-10T19:28:22.662Z,1.76
2024-04-10T19:30:49.358Z,1.76
2024-04-10T19:33:16.160Z,1.89
2024-04-10T19:35:42.963Z,1.83
2024-04-10T19:38:09.671Z,1.86
2024-04-10T19:40:36.415Z,1.83
2024-04-10T19:43:03.106Z,1.85
2024-04-10T19:45:29.829Z,1.87
2024-04-10T19:47:56.629Z,1.76
2024-04-10T19:50:23.542Z,2.01
2024-04-10T19:52:50.245Z,1.89
2024-04-10T19:55:17.016Z,1.91
2024-04-10T19:57:43.795Z,2.08
2024-04-10T20:00:10.606Z,1.89
2024-04-10T20:02:37.524Z,2.10
2024-04-10T20:05:04.472Z,1.85
2024-04-10T20:07:33.615Z,2.01
2024-04-10T20:10:01.179Z,1.89
2024-04-10T20:12:28.027Z,2.02
2024-04-10T20:14:54.934Z,1.96
2024-04-10T20:17:21.770Z,2.01
2024-04-10T20:19:48.667Z,2.05
2024-04-10T20:22:15.398Z,2.20
2024-04-10T20:24:42.142Z,2.20
2024-04-10T20:27:09.016Z,2.38
2024-04-10T20:29:35.873Z,2.19
2024-04-10T20:32:02.791Z,1.95
2024-04-10T20:34:29.715Z,2.10
2024-04-10T20:36:56.424Z,2.23
2024-04-10T20:39:23.118Z,2.13
2024-04-10T20:41:50.013Z,2.10
2024-04-10T20:44:16.740Z,2.20
2024-04-10T20:46:43.446Z,2.15
2024-04-10T20:49:10.516Z,2.16
2024-04-10T20:51:37.371Z,2.39
2024-04-10T20:54:04.229Z,2.39
2024-04-10T20:56:31.101Z,2.17
2024-04-10T20:58:57.949Z,2.27
2024-04-10T21:01:24.729Z,2.17
2024-04-10T21:03:51.776Z,2.33
2024-04-10T21:06:18.644Z,2.40
2024-04-10T21:08:45.383Z,2.35
2024-04-10T21:11:12.254Z,2.11
2024-04-10T21:13:38.963Z,2.34
2024-04-10T21:16:05.648Z,2.23
2024-04-10T21:18:32.615Z,2.22
2024-04-10T21:20:59.433Z,2.26
2024-04-10T21:23:26.288Z,2.34
2024-04-10T21:25:53.169Z,2.18
2024-04-10T21:28:20.021Z,2.32
2024-04-10T21:30:46.694Z,2.36
2024-04-10T21:33:13.620Z,2.35
2024-04-10T21:35:40.454Z,2.73
2024-04-10T21:38:07.132Z,2.50
2024-04-10T21:40:33.875Z,2.52
2024-04-10T21:43:00.545Z,2.37
2024-04-10T21:45:27.209Z,2.46
2024-04-10T21:47:54.099Z,2.54
2024-04-10T21:50:20.917Z,2.55
2024-04-10T21:52:47.644Z,2.44
2024-04-10T21:55:14.357Z,2.74
2024-04-10T21:57:41.029Z,2.57
2024-04-10T22:00:26.833Z,2.60
2024-04-10T22:02:54.773Z,2.49
2024-04-10T22:05:21.960Z,2.42
2024-04-10T22:07:49.368Z,2.77
2024-04-10T22:10:16.618Z,2.66
2024-04-10T22:12:43.552Z,2.58
2024-04-10T22:15:10.441Z,2.59
2024-04-10T22:17:37.405Z,2.69
2024-04-10T22:20:04.182Z,2.76
2024-04-10T22:22:30.874Z,2.53
2024-04-10T22:24:57.656Z,2.53
2024-04-10T22:27:24.307Z,2.65
2024-04-10T22:29:51.062Z,2.55
2024-04-10T22:32:17.846Z,2.81
2024-04-10T22:34:44.663Z,2.80
2024-04-10T22:37:11.406Z,2.96
2024-04-10T22:39:38.131Z,2.63
2024-04-10T22:42:04.892Z,2.78
2024-04-10T22:44:31.622Z,2.84
2024-04-10T22:46:58.371Z,2.62
2024-04-10T22:49:25.062Z,2.80
2024-04-10T22:51:51.721Z,3.00
2024-04-10T22:54:18.521Z,2.80
2024-04-10T22:56:45.245Z,2.59
2024-04-10T22:59:11.990Z,2.83
2024-04-10T23:01:38.686Z,2.85
2024-04-10T23:04:05.558Z,2.75
2024-04-10T23:07:19.271Z,2.68
2024-04-10T23:09:19.121Z,2.83
2024-04-10T23:11:45.954Z,2.71
2024-04-10T23:14:12.708Z,2.76
2024-04-10T23:16:39.525Z,2.92
2024-04-10T23:19:16.682Z,2.86
2024-04-10T23:21:44.800Z,2.80
2024-04-10T23:24:11.474Z,2.72
2024-04-10T23:26:38.318Z,2.98
2024-04-10T23:29:05.099Z,2.58
2024-04-10T23:31:31.813Z,2.82
2024-04-10T23:33:59.123Z,2.74
2024-04-10T23:36:26.364Z,2.60
2024-04-10T23:38:53.116Z,2.71
2024-04-10T23:41:19.920Z,2.70
2024-04-10T23:43:46.831Z,2.81
2024-04-10T23:46:13.631Z,2.82
2024-04-10T23:48:40.613Z,2.86
2024-04-10T23:51:07.654Z,2.73
2024-04-10T23:53:34.469Z,2.87
2024-04-10T23:56:01.187Z,2.85
2024-04-10T23:58:27.889Z,2.94
